EDLV/NRN METAR and TAF weather

Enter ICAO airport designator
Station Type Date Time Source
EDLV METAR 2019/08/19 21:50 UTC NOAA

EDLV 192150Z 22006KT CAVOK 15/11 Q1019


Station Type Date Time Source
EDLV Decoded METAR 2019/08/19 21:50 UTC NOAA

Niederrhein, Germany (EDLV) 51-36-09N 006-08-32E
Aug 19, 2019 - 05:50 PM EDT / 2019.08.19 2150 UTC
Wind: from the SW (220 degrees) at 7 MPH (6 KT):0
Visibility: greater than 7 mile(s):0
Temperature: 59 F (15 C)
Dew Point: 51 F (11 C)
Relative Humidity: 76%
Pressure (altimeter): 30.09 in. Hg (1019 hPa)
ob: EDLV 192150Z 22006KT CAVOK 15/11 Q1019
cycle: 22

Station Type Date Time Source
EDLV TAF 2019/08/19 18:27 UTC NOAA

TAF EDLV 191700Z 1918/2018 24012KT CAVOK
BECMG 1918/1921 VRB03KT
BECMG 2008/2011 26008KT

Example: see airport list